sensor_id;sensor_type;location;lat;lon;timestamp;pressure;altitude;pressure_sealevel;temperature;humidity
49813;BME280;35706;52.100;5.056;2023-04-19T00:00:53;102728.31;;;11.63;65.62
49813;BME280;35706;52.100;5.056;2023-04-19T00:01:53;102719.81;;;11.72;65.35
49813;BME280;35706;52.100;5.056;2023-04-19T00:02:53;102722.75;;;11.67;65.43
49813;BME280;35706;52.100;5.056;2023-04-19T00:03:55;102719.91;;;11.70;65.40
49813;BME280;35706;52.100;5.056;2023-04-19T00:04:56;102717.47;;;11.67;65.64
49813;BME280;35706;52.100;5.056;2023-04-19T00:05:56;102722.66;;;11.69;65.44
49813;BME280;35706;52.100;5.056;2023-04-19T00:06:59;102726.22;;;11.68;65.65
49813;BME280;35706;52.100;5.056;2023-04-19T00:08:01;102723.03;;;11.63;65.83
49813;BME280;35706;52.100;5.056;2023-04-19T00:09:02;102717.47;;;11.67;65.75
49813;BME280;35706;52.100;5.056;2023-04-19T00:10:03;102723.88;;;11.63;65.91
49813;BME280;35706;52.100;5.056;2023-04-19T00:11:03;102720.88;;;11.55;66.42
49813;BME280;35706;52.100;5.056;2023-04-19T00:12:03;102722.00;;;11.65;66.18
49813;BME280;35706;52.100;5.056;2023-04-19T00:13:05;102718.81;;;11.60;66.08
49813;BME280;35706;52.100;5.056;2023-04-19T00:14:05;102718.31;;;11.53;66.41
49813;BME280;35706;52.100;5.056;2023-04-19T00:15:06;102722.59;;;11.56;66.35
49813;BME280;35706;52.100;5.056;2023-04-19T00:16:07;102724.72;;;11.64;66.45
49813;BME280;35706;52.100;5.056;2023-04-19T00:17:07;102719.06;;;11.70;66.18
49813;BME280;35706;52.100;5.056;2023-04-19T00:18:07;102718.97;;;11.71;66.00
49813;BME280;35706;52.100;5.056;2023-04-19T00:19:08;102718.22;;;11.69;66.13
49813;BME280;35706;52.100;5.056;2023-04-19T00:20:09;102719.66;;;11.60;66.65
49813;BME280;35706;52.100;5.056;2023-04-19T00:21:10;102727.09;;;11.54;66.89
49813;BME280;35706;52.100;5.056;2023-04-19T00:22:11;102718.81;;;11.60;66.97
49813;BME280;35706;52.100;5.056;2023-04-19T00:23:11;102720.13;;;11.53;67.03
49813;BME280;35706;52.100;5.056;2023-04-19T00:24:11;102717.19;;;11.57;67.02
49813;BME280;35706;52.100;5.056;2023-04-19T00:25:12;102721.63;;;11.57;67.04
49813;BME280;35706;52.100;5.056;2023-04-19T00:26:12;102722.06;;;11.64;66.95
49813;BME280;35706;52.100;5.056;2023-04-19T00:27:14;102726.88;;;11.57;67.26
49813;BME280;35706;52.100;5.056;2023-04-19T00:28:14;102722.94;;;11.64;67.10
49813;BME280;35706;52.100;5.056;2023-04-19T00:29:15;102718.91;;;11.58;67.19
49813;BME280;35706;52.100;5.056;2023-04-19T00:30:15;102717.09;;;11.59;67.45
49813;BME280;35706;52.100;5.056;2023-04-19T00:31:15;102721.84;;;11.54;67.55
49813;BME280;35706;52.100;5.056;2023-04-19T00:32:16;102716.19;;;11.46;67.78
49813;BME280;35706;52.100;5.056;2023-04-19T00:33:16;102714.31;;;11.48;67.91
49813;BME280;35706;52.100;5.056;2023-04-19T00:34:16;102707.31;;;11.61;67.29
49813;BME280;35706;52.100;5.056;2023-04-19T00:35:17;102707.84;;;11.66;67.28
49813;BME280;35706;52.100;5.056;2023-04-19T00:36:17;102713.44;;;11.61;67.30
49813;BME280;35706;52.100;5.056;2023-04-19T00:37:17;102711.38;;;11.67;67.25
49813;BME280;35706;52.100;5.056;2023-04-19T00:38:18;102705.53;;;11.61;67.43
49813;BME280;35706;52.100;5.056;2023-04-19T00:39:18;102710.72;;;11.63;67.31
49813;BME280;35706;52.100;5.056;2023-04-19T00:40:18;102712.03;;;11.56;67.65
49813;BME280;35706;52.100;5.056;2023-04-19T00:41:19;102710.16;;;11.58;67.85
49813;BME280;35706;52.100;5.056;2023-04-19T00:42:19;102711.28;;;11.54;68.00
49813;BME280;35706;52.100;5.056;2023-04-19T00:43:20;102714.31;;;11.48;68.06
49813;BME280;35706;52.100;5.056;2023-04-19T00:44:20;102708.84;;;11.51;67.93
49813;BME280;35706;52.100;5.056;2023-04-19T00:45:20;102708.22;;;11.47;68.17
49813;BME280;35706;52.100;5.056;2023-04-19T00:46:21;102711.97;;;11.43;68.57
49813;BME280;35706;52.100;5.056;2023-04-19T00:47:21;102700.41;;;11.46;68.65
49813;BME280;35706;52.100;5.056;2023-04-19T00:48:22;102706.44;;;11.33;68.86
49813;BME280;35706;52.100;5.056;2023-04-19T00:49:23;102703.13;;;11.30;69.09
49813;BME280;35706;52.100;5.056;2023-04-19T00:50:24;102704.00;;;11.30;69.26
49813;BME280;35706;52.100;5.056;2023-04-19T00:51:24;102704.09;;;11.29;69.11
49813;BME280;35706;52.100;5.056;2023-04-19T00:52:26;102701.16;;;11.33;69.05
49813;BME280;35706;52.100;5.056;2023-04-19T00:53:26;102706.13;;;11.24;69.41
49813;BME280;35706;52.100;5.056;2023-04-19T00:54:27;102699.75;;;11.28;69.16
49813;BME280;35706;52.100;5.056;2023-04-19T00:55:27;102700.41;;;11.31;69.16
49813;BME280;35706;52.100;5.056;2023-04-19T00:56:28;102707.19;;;11.21;69.39
49813;BME280;35706;52.100;5.056;2023-04-19T00:57:29;102703.72;;;11.20;69.39
49813;BME280;35706;52.100;5.056;2023-04-19T00:58:30;102701.75;;;11.24;69.38
49813;BME280;35706;52.100;5.056;2023-04-19T00:59:32;102705.88;;;11.28;69.30
49813;BME280;35706;52.100;5.056;2023-04-19T01:00:34;102703.59;;;11.36;69.00
49813;BME280;35706;52.100;5.056;2023-04-19T01:01:35;102705.09;;;11.40;68.90
49813;BME280;35706;52.100;5.056;2023-04-19T01:02:35;102707.53;;;11.44;68.66
49813;BME280;35706;52.100;5.056;2023-04-19T01:03:35;102704.16;;;11.27;69.15
49813;BME280;35706;52.100;5.056;2023-04-19T01:04:36;102708.69;;;11.25;69.51
49813;BME280;35706;52.100;5.056;2023-04-19T01:05:37;102712.34;;;11.08;70.22
49813;BME280;35706;52.100;5.056;2023-04-19T01:06:39;102706.16;;;11.09;70.27
49813;BME280;35706;52.100;5.056;2023-04-19T01:07:40;102710.09;;;11.16;69.99
49813;BME280;35706;52.100;5.056;2023-04-19T01:08:40;102704.44;;;11.08;70.35
49813;BME280;35706;52.100;5.056;2023-04-19T01:09:45;102702.84;;;11.06;70.27
49813;BME280;35706;52.100;5.056;2023-04-19T01:10:45;102706.16;;;11.09;70.33
49813;BME280;35706;52.100;5.056;2023-04-19T01:11:46;102701.53;;;11.27;69.92
49813;BME280;35706;52.100;5.056;2023-04-19T01:12:46;102702.28;;;11.29;69.66
49813;BME280;35706;52.100;5.056;2023-04-19T01:13:46;102706.34;;;11.20;70.17
49813;BME280;35706;52.100;5.056;2023-04-19T01:14:46;102697.13;;;11.13;70.22
49813;BME280;35706;52.100;5.056;2023-04-19T01:15:47;102705.09;;;10.97;70.71
49813;BME280;35706;52.100;5.056;2023-04-19T01:16:47;102706.22;;;10.93;71.01
49813;BME280;35706;52.100;5.056;2023-04-19T01:17:48;102708.31;;;10.88;71.58
49813;BME280;35706;52.100;5.056;2023-04-19T01:18:49;102698.16;;;10.96;71.07
49813;BME280;35706;52.100;5.056;2023-04-19T01:19:58;102705.56;;;10.90;71.60
49813;BME280;35706;52.100;5.056;2023-04-19T01:21:00;102695.91;;;10.90;71.42
49813;BME280;35706;52.100;5.056;2023-04-19T01:22:01;102702.28;;;11.00;71.05
49813;BME280;35706;52.100;5.056;2023-04-19T01:23:03;102701.56;;;10.98;70.85
49813;BME280;35706;52.100;5.056;2023-04-19T01:24:03;102698.63;;;11.03;70.95
49813;BME280;35706;52.100;5.056;2023-04-19T01:25:04;102697.59;;;11.06;70.66
49813;BME280;35706;52.100;5.056;2023-04-19T01:26:04;102697.59;;;11.06;70.85
49813;BME280;35706;52.100;5.056;2023-04-19T01:27:05;102702.66;;;11.09;70.78
49813;BME280;35706;52.100;5.056;2023-04-19T01:28:06;102690.25;;;11.11;70.51
49813;BME280;35706;52.100;5.056;2023-04-19T01:29:06;102696.94;;;11.02;70.95
49813;BME280;35706;52.100;5.056;2023-04-19T01:30:07;102698.16;;;10.96;70.86
49813;BME280;35706;52.100;5.056;2023-04-19T01:31:07;102702.94;;;10.90;71.20
49813;BME280;35706;52.100;5.056;2023-04-19T01:32:08;102700.22;;;10.91;71.39
49813;BME280;35706;52.100;5.056;2023-04-19T01:33:08;102702.00;;;10.91;71.35
49813;BME280;35706;52.100;5.056;2023-04-19T01:34:08;102697.13;;;10.99;71.36
49813;BME280;35706;52.100;5.056;2023-04-19T01:35:09;102693.06;;;10.93;71.28
49813;BME280;35706;52.100;5.056;2023-04-19T01:36:10;102698.34;;;10.93;71.36
49813;BME280;35706;52.100;5.056;2023-04-19T01:37:12;102699.94;;;10.96;71.25
49813;BME280;35706;52.100;5.056;2023-04-19T01:38:12;102701.44;;;11.00;71.17
49813;BME280;35706;52.100;5.056;2023-04-19T01:39:13;102706.69;;;11.00;70.96
49813;BME280;35706;52.100;5.056;2023-04-19T01:40:13;102705.09;;;10.97;71.27
49813;BME280;35706;52.100;5.056;2023-04-19T01:41:14;102694.94;;;10.91;71.44
49813;BME280;35706;52.100;5.056;2023-04-19T01:42:14;102702.84;;;10.91;71.89
49813;BME280;35706;52.100;5.056;2023-04-19T01:43:16;102701.72;;;10.95;71.70
49813;BME280;35706;52.100;5.056;2023-04-19T01:44:17;102700.22;;;10.91;71.64
49813;BME280;35706;52.100;5.056;2023-04-19T01:45:17;102701.44;;;11.00;71.53
49813;BME280;35706;52.100;5.056;2023-04-19T01:46:18;102694.78;;;10.94;71.73
49813;BME280;35706;52.100;5.056;2023-04-19T01:47:18;102686.31;;;10.89;71.95
49813;BME280;35706;52.100;5.056;2023-04-19T01:48:18;102687.91;;;10.92;71.97
49813;BME280;35706;52.100;5.056;2023-04-19T01:49:19;102691.56;;;10.89;71.96
49813;BME280;35706;52.100;5.056;2023-04-19T01:50:19;102686.78;;;10.96;71.65
49813;BME280;35706;52.100;5.056;2023-04-19T01:51:19;102687.91;;;10.92;71.85
49813;BME280;35706;52.100;5.056;2023-04-19T01:52:20;102690.66;;;10.90;72.00
49813;BME280;35706;52.100;5.056;2023-04-19T01:53:21;102690.53;;;10.92;71.85
49813;BME280;35706;52.100;5.056;2023-04-19T01:54:21;102697.13;;;10.99;71.80
49813;BME280;35706;52.100;5.056;2023-04-19T01:55:21;102695.88;;;11.05;71.51
49813;BME280;35706;52.100;5.056;2023-04-19T01:56:22;102696.00;;;11.03;71.45
49813;BME280;35706;52.100;5.056;2023-04-19T01:57:22;102701.63;;;10.97;71.92
49813;BME280;35706;52.100;5.056;2023-04-19T01:58:22;102706.81;;;10.98;71.65
49813;BME280;35706;52.100;5.056;2023-04-19T01:59:23;102696.09;;;11.02;71.60
49813;BME280;35706;52.100;5.056;2023-04-19T02:00:23;102696.28;;;10.98;71.56
49813;BME280;35706;52.100;5.056;2023-04-19T02:01:23;102701.72;;;10.95;71.88
49813;BME280;35706;52.100;5.056;2023-04-19T02:02:24;102696.66;;;10.92;71.88
49813;BME280;35706;52.100;5.056;2023-04-19T02:03:24;102689.03;;;10.88;72.11
49813;BME280;35706;52.100;5.056;2023-04-19T02:04:24;102690.53;;;10.92;72.32
49813;BME280;35706;52.100;5.056;2023-04-19T02:05:24;102699.38;;;10.91;72.38
49813;BME280;35706;52.100;5.056;2023-04-19T02:06:25;102694.75;;;10.80;72.70
49813;BME280;35706;52.100;5.056;2023-04-19T02:07:26;102701.16;;;10.76;72.91
49813;BME280;35706;52.100;5.056;2023-04-19T02:08:26;102700.84;;;10.66;73.17
49813;BME280;35706;52.100;5.056;2023-04-19T02:09:26;102698.78;;;10.71;73.20
49813;BME280;35706;52.100;5.056;2023-04-19T02:10:27;102696.16;;;10.71;73.02
49813;BME280;35706;52.100;5.056;2023-04-19T02:11:27;102698.69;;;10.73;73.07
49813;BME280;35706;52.100;5.056;2023-04-19T02:12:29;102697.56;;;10.77;73.14
49813;BME280;35706;52.100;5.056;2023-04-19T02:13:30;102700.09;;;10.78;73.30
49813;BME280;35706;52.100;5.056;2023-04-19T02:14:30;102687.63;;;10.82;72.92
49813;BME280;35706;52.100;5.056;2023-04-19T02:15:31;102692.06;;;10.82;73.11
49813;BME280;35706;52.100;5.056;2023-04-19T02:16:31;102693.53;;;10.71;73.22
49813;BME280;35706;52.100;5.056;2023-04-19T02:17:31;102691.75;;;10.72;73.65
49813;BME280;35706;52.100;5.056;2023-04-19T02:18:32;102693.16;;;10.77;73.19
49813;BME280;35706;52.100;5.056;2023-04-19T02:19:37;102688.75;;;10.78;73.23
49813;BME280;35706;52.100;5.056;2023-04-19T02:20:38;102690.63;;;10.76;73.42
49813;BME280;35706;52.100;5.056;2023-04-19T02:21:38;102690.16;;;10.69;73.94
49813;BME280;35706;52.100;5.056;2023-04-19T02:22:38;102694.09;;;10.76;73.60
49813;BME280;35706;52.100;5.056;2023-04-19T02:23:39;102683.56;;;10.76;73.43
49813;BME280;35706;52.100;5.056;2023-04-19T02:24:39;102689.03;;;10.73;73.50
49813;BME280;35706;52.100;5.056;2023-04-19T02:25:40;102690.66;;;10.90;72.97
49813;BME280;35706;52.100;5.056;2023-04-19T02:26:40;102688.94;;;10.89;73.16
49813;BME280;35706;52.100;5.056;2023-04-19T02:27:40;102692.22;;;10.78;73.32
49813;BME280;35706;52.100;5.056;2023-04-19T02:28:41;102683.50;;;10.78;73.54
49813;BME280;35706;52.100;5.056;2023-04-19T02:29:41;102691.38;;;10.78;73.53
49813;BME280;35706;52.100;5.056;2023-04-19T02:30:41;102689.66;;;10.77;73.65
49813;BME280;35706;52.100;5.056;2023-04-19T02:31:42;102687.78;;;10.79;73.77
49813;BME280;35706;52.100;5.056;2023-04-19T02:32:47;102691.09;;;10.83;73.82
49813;BME280;35706;52.100;5.056;2023-04-19T02:33:47;102690.16;;;10.84;73.76
49813;BME280;35706;52.100;5.056;2023-04-19T02:34:47;102697.03;;;10.86;73.75
49813;BME280;35706;52.100;5.056;2023-04-19T02:35:48;102685.91;;;10.81;73.65
49813;BME280;35706;52.100;5.056;2023-04-19T02:36:48;102688.78;;;10.92;73.23
49813;BME280;35706;52.100;5.056;2023-04-19T02:37:48;102677.97;;;10.97;72.88
49813;BME280;35706;52.100;5.056;2023-04-19T02:38:49;102683.41;;;10.94;73.05
49813;BME280;35706;52.100;5.056;2023-04-19T02:39:49;102690.84;;;11.02;72.83
49813;BME280;35706;52.100;5.056;2023-04-19T02:40:49;102689.53;;;10.94;73.11
49813;BME280;35706;52.100;5.056;2023-04-19T02:41:49;102688.47;;;10.83;74.09
49813;BME280;35706;52.100;5.056;2023-04-19T02:42:51;102689.50;;;10.80;73.85
49813;BME280;35706;52.100;5.056;2023-04-19T02:43:51;102689.78;;;10.75;73.99
49813;BME280;35706;52.100;5.056;2023-04-19T02:44:51;102693.53;;;10.71;74.03
49813;BME280;35706;52.100;5.056;2023-04-19T02:45:52;102690.63;;;10.76;74.01
49813;BME280;35706;52.100;5.056;2023-04-19T02:46:53;102695.81;;;10.77;74.03
49813;BME280;35706;52.100;5.056;2023-04-19T02:47:53;102696.91;;;10.73;74.32
49813;BME280;35706;52.100;5.056;2023-04-19T02:48:54;102698.31;;;10.79;73.87
49813;BME280;35706;52.100;5.056;2023-04-19T02:49:54;102686.47;;;10.72;73.93
49813;BME280;35706;52.100;5.056;2023-04-19T02:50:54;102687.78;;;10.79;73.99
49813;BME280;35706;52.100;5.056;2023-04-19T02:51:55;102694.75;;;10.80;74.35
49813;BME280;35706;52.100;5.056;2023-04-19T02:52:56;102694.47;;;10.85;73.89
49813;BME280;35706;52.100;5.056;2023-04-19T02:53:57;102700.88;;;10.95;73.15
49813;BME280;35706;52.100;5.056;2023-04-19T02:54:57;102694.50;;;10.99;73.31
49813;BME280;35706;52.100;5.056;2023-04-19T02:55:57;102703.22;;;10.99;73.25
49813;BME280;35706;52.100;5.056;2023-04-19T02:56:58;102694.59;;;10.97;73.13
49813;BME280;35706;52.100;5.056;2023-04-19T02:57:58;102701.56;;;10.98;73.23
49813;BME280;35706;52.100;5.056;2023-04-19T02:59:02;102700.59;;;10.99;73.43
49813;BME280;35706;52.100;5.056;2023-04-19T03:00:04;102700.69;;;10.98;73.56
49813;BME280;35706;52.100;5.056;2023-04-19T03:01:05;102700.22;;;10.91;73.81
49813;BME280;35706;52.100;5.056;2023-04-19T03:02:06;102703.41;;;10.82;73.93
49813;BME280;35706;52.100;5.056;2023-04-19T03:03:06;102708.47;;;10.85;74.02
49813;BME280;35706;52.100;5.056;2023-04-19T03:04:07;102696.56;;;10.79;74.15
49813;BME280;35706;52.100;5.056;2023-04-19T03:05:07;102692.31;;;10.77;74.08
49813;BME280;35706;52.100;5.056;2023-04-19T03:06:08;102697.94;;;10.85;73.93
49813;BME280;35706;52.100;5.056;2023-04-19T03:07:08;102696.00;;;10.89;73.81
49813;BME280;35706;52.100;5.056;2023-04-19T03:08:09;102693.44;;;10.87;73.84
49813;BME280;35706;52.100;5.056;2023-04-19T03:09:10;102689.50;;;10.80;73.93
49813;BME280;35706;52.100;5.056;2023-04-19T03:10:10;102696.56;;;10.79;74.27
49813;BME280;35706;52.100;5.056;2023-04-19T03:11:11;102699.09;;;10.95;73.83
49813;BME280;35706;52.100;5.056;2023-04-19T03:12:12;102697.31;;;10.82;73.87
49813;BME280;35706;52.100;5.056;2023-04-19T03:13:12;102697.03;;;10.86;73.89
49813;BME280;35706;52.100;5.056;2023-04-19T03:14:13;102694.88;;;10.93;73.60
49813;BME280;35706;52.100;5.056;2023-04-19T03:15:13;102691.56;;;10.89;73.80
49813;BME280;35706;52.100;5.056;2023-04-19T03:16:13;102697.88;;;10.87;73.81
49813;BME280;35706;52.100;5.056;2023-04-19T03:17:13;102688.09;;;10.89;73.65
49813;BME280;35706;52.100;5.056;2023-04-19T03:18:14;102690.53;;;10.92;73.45
49813;BME280;35706;52.100;5.056;2023-04-19T03:19:16;102686.13;;;10.92;73.64
49813;BME280;35706;52.100;5.056;2023-04-19T03:20:16;102688.19;;;10.87;73.73
49813;BME280;35706;52.100;5.056;2023-04-19T03:21:17;102690.06;;;10.99;73.47
49813;BME280;35706;52.100;5.056;2023-04-19T03:22:17;102689.69;;;10.91;73.54
49813;BME280;35706;52.100;5.056;2023-04-19T03:23:17;102686.13;;;10.92;73.61
49813;BME280;35706;52.100;5.056;2023-04-19T03:24:18;102690.44;;;10.93;73.67
49813;BME280;35706;52.100;5.056;2023-04-19T03:25:19;102692.91;;;10.96;73.34
49813;BME280;35706;52.100;5.056;2023-04-19T03:26:19;102681.34;;;10.99;73.33
49813;BME280;35706;52.100;5.056;2023-04-19T03:27:20;102692.91;;;10.96;73.44
49813;BME280;35706;52.100;5.056;2023-04-19T03:28:20;102694.22;;;11.04;73.64
49813;BME280;35706;52.100;5.056;2023-04-19T03:29:20;102686.59;;;10.99;73.32
49813;BME280;35706;52.100;5.056;2023-04-19T03:30:21;102682.09;;;11.01;73.02
49813;BME280;35706;52.100;5.056;2023-04-19T03:31:21;102685.84;;;10.97;72.85
49813;BME280;35706;52.100;5.056;2023-04-19T03:32:22;102688.28;;;11.00;73.27
49813;BME280;35706;52.100;5.056;2023-04-19T03:33:22;102688.28;;;11.00;73.28
49813;BME280;35706;52.100;5.056;2023-04-19T03:34:22;102682.94;;;11.02;73.22
49813;BME280;35706;52.100;5.056;2023-04-19T03:35:22;102683.22;;;10.97;73.29
49813;BME280;35706;52.100;5.056;2023-04-19T03:36:25;102682.56;;;10.93;73.30
49813;BME280;35706;52.100;5.056;2023-04-19T03:37:26;102680.97;;;10.91;73.40
49813;BME280;35706;52.100;5.056;2023-04-19T03:38:26;102692.25;;;10.93;73.82
49813;BME280;35706;52.100;5.056;2023-04-19T03:39:26;102682.09;;;10.87;73.43
49813;BME280;35706;52.100;5.056;2023-04-19T03:40:29;102686.69;;;10.83;74.03
49813;BME280;35706;52.100;5.056;2023-04-19T03:41:30;102689.22;;;10.85;73.95
49813;BME280;35706;52.100;5.056;2023-04-19T03:42:30;102682.09;;;10.87;73.67
49813;BME280;35706;52.100;5.056;2023-04-19T03:43:30;102682.00;;;10.88;73.93
49813;BME280;35706;52.100;5.056;2023-04-19T03:44:31;102684.63;;;10.88;73.67
49813;BME280;35706;52.100;5.056;2023-04-19T03:45:32;102683.69;;;10.89;73.53
49813;BME280;35706;52.100;5.056;2023-04-19T03:46:32;102682.75;;;10.90;73.54
49813;BME280;35706;52.100;5.056;2023-04-19T03:47:33;102680.50;;;10.98;73.21
49813;BME280;35706;52.100;5.056;2023-04-19T03:48:33;102679.91;;;10.93;73.23
49813;BME280;35706;52.100;5.056;2023-04-19T03:49:34;102680.88;;;10.92;73.56
49813;BME280;35706;52.100;5.056;2023-04-19T03:50:35;102680.13;;;10.90;73.22
49813;BME280;35706;52.100;5.056;2023-04-19T03:51:35;102675.88;;;10.88;73.55
49813;BME280;35706;52.100;5.056;2023-04-19T03:52:35;102675.78;;;10.89;73.42
49813;BME280;35706;52.100;5.056;2023-04-19T03:53:36;102680.97;;;10.91;73.53
49813;BME280;35706;52.100;5.056;2023-04-19T03:54:36;102688.28;;;11.00;73.06
49813;BME280;35706;52.100;5.056;2023-04-19T03:55:36;102687.72;;;10.95;73.20
49813;BME280;35706;52.100;5.056;2023-04-19T03:56:37;102689.78;;;10.90;73.50
49813;BME280;35706;52.100;5.056;2023-04-19T03:57:37;102691.78;;;10.86;73.52
49813;BME280;35706;52.100;5.056;2023-04-19T03:58:37;102682.53;;;10.79;73.85
49813;BME280;35706;52.100;5.056;2023-04-19T03:59:37;102678.03;;;10.81;73.48
49813;BME280;35706;52.100;5.056;2023-04-19T04:00:38;102683.59;;;10.91;73.23
49813;BME280;35706;52.100;5.056;2023-04-19T04:01:38;102687.34;;;10.87;73.48
49813;BME280;35706;52.100;5.056;2023-04-19T04:02:41;102691.84;;;10.85;73.52
49813;BME280;35706;52.100;5.056;2023-04-19T04:03:41;102684.81;;;10.85;73.59
49813;BME280;35706;52.100;5.056;2023-04-19T04:04:41;102687.44;;;10.85;73.64
49813;BME280;35706;52.100;5.056;2023-04-19T04:05:42;102690.06;;;10.85;73.51
49813;BME280;35706;52.100;5.056;2023-04-19T04:06:43;102693.44;;;10.87;73.48
49813;BME280;35706;52.100;5.056;2023-04-19T04:07:43;102686.38;;;10.88;73.49
49813;BME280;35706;52.100;5.056;2023-04-19T04:08:43;102685.47;;;10.89;73.17
49813;BME280;35706;52.100;5.056;2023-04-19T04:09:44;102686.84;;;10.66;74.05
49813;BME280;35706;52.100;5.056;2023-04-19T04:10:46;102686.56;;;10.70;74.34
49813;BME280;35706;52.100;5.056;2023-04-19T04:11:46;102681.97;;;10.74;73.98
49813;BME280;35706;52.100;5.056;2023-04-19T04:12:47;102683.28;;;10.81;73.85
49813;BME280;35706;52.100;5.056;2023-04-19T04:13:47;102683.69;;;10.89;73.36
49813;BME280;35706;52.100;5.056;2023-04-19T04:14:48;102687.66;;;10.96;73.29
49813;BME280;35706;52.100;5.056;2023-04-19T04:15:48;102686.22;;;10.91;73.32
49813;BME280;35706;52.100;5.056;2023-04-19T04:16:49;102680.88;;;10.92;73.18
49813;BME280;35706;52.100;5.056;2023-04-19T04:17:49;102687.06;;;10.91;73.31
49813;BME280;35706;52.100;5.056;2023-04-19T04:18:50;102682.75;;;10.90;73.25
49813;BME280;35706;52.100;5.056;2023-04-19T04:19:50;102685.47;;;10.89;73.54
49813;BME280;35706;52.100;5.056;2023-04-19T04:20:51;102686.19;;;10.76;73.78
49813;BME280;35706;52.100;5.056;2023-04-19T04:21:51;102683.28;;;10.81;73.69
49813;BME280;35706;52.100;5.056;2023-04-19T04:22:51;102690.44;;;10.79;73.88
49813;BME280;35706;52.100;5.056;2023-04-19T04:23:52;102699.75;;;10.85;73.75
49813;BME280;35706;52.100;5.056;2023-04-19T04:24:52;102692.31;;;10.77;74.08
49813;BME280;35706;52.100;5.056;2023-04-19T04:25:57;102686.13;;;10.78;74.45
49813;BME280;35706;52.100;5.056;2023-04-19T04:27:01;102691.00;;;10.84;73.83
49813;BME280;35706;52.100;5.056;2023-04-19T04:28:03;102695.16;;;10.88;73.67
49813;BME280;35706;52.100;5.056;2023-04-19T04:29:03;102693.41;;;10.73;74.32
49813;BME280;35706;52.100;5.056;2023-04-19T04:30:05;102695.22;;;10.72;74.42
49813;BME280;35706;52.100;5.056;2023-04-19T04:31:05;102693.34;;;10.74;74.25
49813;BME280;35706;52.100;5.056;2023-04-19T04:32:07;102698.22;;;10.80;73.95
49813;BME280;35706;52.100;5.056;2023-04-19T04:33:09;102693.53;;;10.71;73.99
49813;BME280;35706;52.100;5.056;2023-04-19T04:34:11;102696.16;;;10.71;73.88
49813;BME280;35706;52.100;5.056;2023-04-19T04:35:11;102704.81;;;10.73;73.93
49813;BME280;35706;52.100;5.056;2023-04-19T04:36:12;102700.31;;;10.75;73.77
49813;BME280;35706;52.100;5.056;2023-04-19T04:37:12;102691.28;;;10.65;74.01
49813;BME280;35706;52.100;5.056;2023-04-19T04:38:13;102692.19;;;10.64;73.84
49813;BME280;35706;52.100;5.056;2023-04-19T04:39:13;102692.09;;;10.66;73.74
49813;BME280;35706;52.100;5.056;2023-04-19T04:40:14;102693.69;;;10.68;73.53
49813;BME280;35706;52.100;5.056;2023-04-19T04:41:14;102691.81;;;10.70;73.46
49813;BME280;35706;52.100;5.056;2023-04-19T04:42:15;102692.88;;;10.68;73.50
49813;BME280;35706;52.100;5.056;2023-04-19T04:43:16;102693.41;;;10.58;73.93
49813;BME280;35706;52.100;5.056;2023-04-19T04:44:17;102693.31;;;10.60;74.03
49813;BME280;35706;52.100;5.056;2023-04-19T04:45:17;102690.03;;;10.56;73.73
49813;BME280;35706;52.100;5.056;2023-04-19T04:46:17;102701.94;;;10.62;73.25
49813;BME280;35706;52.100;5.056;2023-04-19T04:47:19;102687.28;;;10.58;73.11
49813;BME280;35706;52.100;5.056;2023-04-19T04:48:20;102687.41;;;10.56;73.31
49813;BME280;35706;52.100;5.056;2023-04-19T04:49:20;102693.97;;;10.64;72.82
49813;BME280;35706;52.100;5.056;2023-04-19T04:50:20;102686.28;;;10.61;72.88
49813;BME280;35706;52.100;5.056;2023-04-19T04:51:20;102691.53;;;10.61;72.68
49813;BME280;35706;52.100;5.056;2023-04-19T04:52:21;102694.25;;;10.59;72.83
49813;BME280;35706;52.100;5.056;2023-04-19T04:53:21;102693.16;;;10.63;72.80
49813;BME280;35706;52.100;5.056;2023-04-19T04:54:23;102699.25;;;10.64;72.56
49813;BME280;35706;52.100;5.056;2023-04-19T04:55:23;102697.44;;;10.64;72.28
49813;BME280;35706;52.100;5.056;2023-04-19T04:56:23;102695.00;;;10.61;72.58
49813;BME280;35706;52.100;5.056;2023-04-19T04:57:24;102691.34;;;10.64;72.42
49813;BME280;35706;52.100;5.056;2023-04-19T04:58:25;102686.28;;;10.61;72.55
49813;BME280;35706;52.100;5.056;2023-04-19T04:59:26;102691.34;;;10.64;72.50
49813;BME280;35706;52.100;5.056;2023-04-19T05:00:26;102696.81;;;10.61;72.59
49813;BME280;35706;52.100;5.056;2023-04-19T05:01:26;102694.81;;;10.50;73.01
49813;BME280;35706;52.100;5.056;2023-04-19T05:02:27;102691.22;;;10.51;72.98
49813;BME280;35706;52.100;5.056;2023-04-19T05:03:27;102702.19;;;10.43;73.44
49813;BME280;35706;52.100;5.056;2023-04-19T05:04:27;102689.25;;;10.40;73.94
49813;BME280;35706;52.100;5.056;2023-04-19T05:05:28;102689.16;;;10.42;73.99
49813;BME280;35706;52.100;5.056;2023-04-19T05:06:28;102684.72;;;10.42;73.90
49813;BME280;35706;52.100;5.056;2023-04-19T05:07:29;102689.50;;;10.35;74.01
49813;BME280;35706;52.100;5.056;2023-04-19T05:08:29;102698.75;;;10.27;74.24
49813;BME280;35706;52.100;5.056;2023-04-19T05:09:30;102688.31;;;10.25;74.42
49813;BME280;35706;52.100;5.056;2023-04-19T05:10:30;102694.50;;;10.24;74.67
49813;BME280;35706;52.100;5.056;2023-04-19T05:11:30;102689.31;;;10.38;74.17
49813;BME280;35706;52.100;5.056;2023-04-19T05:12:31;102694.41;;;10.42;74.10
49813;BME280;35706;52.100;5.056;2023-04-19T05:13:31;102694.78;;;10.35;74.23
49813;BME280;35706;52.100;5.056;2023-04-19T05:14:31;102685.59;;;10.27;74.24
49813;BME280;35706;52.100;5.056;2023-04-19T05:15:32;102690.69;;;10.30;74.58
49813;BME280;35706;52.100;5.056;2023-04-19T05:16:32;102691.19;;;10.36;74.47
49813;BME280;35706;52.100;5.056;2023-04-19T05:17:33;102694.00;;;10.33;74.65